Time;durP1;ratioP1;P1;durP2;ratioP2;P2;SDS_P1;SDS_P2;PMS_P1;PMS_P2;Temp;Humidity;BMP_temperature;BMP_pressure;BME280_temperature;BME280_humidity;BME280_pressure;Samples;Min_cycle;Max_cycle;Signal;HPM_P1;HPM_P2
2023/01/30 00:00:22;;;;;;;;;31.75;26.00;;;;;7.26;64.70;102217.34;5035572;28;45061;-67
2023/01/30 00:02:48;;;;;;;;;34.25;27.00;;;;;7.22;64.77;102208.25;5039011;28;45857;-67
2023/01/30 00:05:13;;;;;;;;;38.75;28.75;;;;;7.22;64.61;102212.66;5013806;28;45186;-67
2023/01/30 00:07:38;;;;;;;;;25.75;23.25;;;;;7.21;64.68;102209.09;5039988;28;45148;-67
2023/01/30 00:10:04;;;;;;;;;25.25;23.25;;;;;7.20;64.36;102205.50;5031623;28;45137;-68
2023/01/30 00:12:30;;;;;;;;;38.25;33.00;;;;;7.19;64.96;102206.34;5036195;28;45614;-65
2023/01/30 00:14:55;;;;;;;;;37.25;28.00;;;;;7.24;64.38;102214.59;5025087;28;44973;-67
2023/01/30 00:17:20;;;;;;;;;25.75;24.00;;;;;7.24;64.34;102206.59;5032867;28;45180;-68
2023/01/30 00:19:46;;;;;;;;;26.50;24.50;;;;;7.16;64.56;102191.91;5029332;28;44840;-68
2023/01/30 00:22:11;;;;;;;;;30.75;25.75;;;;;7.23;64.99;102185.28;5033956;28;45876;-67
2023/01/30 00:24:36;;;;;;;;;28.50;25.00;;;;;7.25;64.24;102188.94;5027381;28;45076;-67
2023/01/30 00:27:02;;;;;;;;;29.25;26.50;;;;;7.22;64.33;102184.34;5030640;28;45189;-68
2023/01/30 00:29:27;;;;;;;;;36.75;29.25;;;;;7.25;64.56;102176.56;5029014;28;45178;-68
2023/01/30 00:31:52;;;;;;;;;40.50;33.75;;;;;7.22;64.14;102173.69;5028621;28;45880;-67
2023/01/30 00:34:18;;;;;;;;;31.50;27.50;;;;;7.21;64.31;102169.22;5030690;28;45029;-67
2023/01/30 00:36:43;;;;;;;;;41.00;32.00;;;;;7.09;64.49;102161.38;5031337;28;45315;-68
2023/01/30 00:39:08;;;;;;;;;28.75;24.00;;;;;7.12;63.98;102176.59;5030597;28;45038;-67
2023/01/30 00:47:05;;;;;;;;;31.00;26.25;;;;;7.13;64.86;102155.44;5027644;28;45061;-67
2023/01/30 00:49:30;;;;;;;;;27.25;24.50;;;;;7.14;64.36;102149.31;5026428;28;45425;-68
2023/01/30 00:51:55;;;;;;;;;26.00;24.75;;;;;7.18;64.41;102161.97;5028320;28;45649;-68
2023/01/30 00:54:21;;;;;;;;;31.50;24.25;;;;;7.14;64.00;102149.31;5032821;28;44943;-67
2023/01/30 00:56:46;;;;;;;;;43.50;28.50;;;;;7.18;64.55;102139.78;5039510;28;45197;-67
2023/01/30 00:59:12;;;;;;;;;29.00;26.00;;;;;7.17;64.86;102144.16;5032228;28;45086;-68
2023/01/30 01:01:37;;;;;;;;;33.50;25.00;;;;;7.15;64.03;102140.50;5026024;28;47144;-67
2023/01/30 01:04:03;;;;;;;;;35.50;23.25;;;;;7.12;63.95;102139.41;5040499;28;46125;-66
2023/01/30 01:06:29;;;;;;;;;28.75;26.00;;;;;7.06;64.41;102118.69;5040590;28;45455;-66
2023/01/30 01:08:54;;;;;;;;;23.75;20.25;;;;;7.11;63.99;102122.56;5037842;28;45175;-66
2023/01/30 01:11:25;;;;;;;;;25.75;24.75;;;;;7.14;64.25;102130.72;5029145;28;46008;-67
2023/01/30 01:13:53;;;;;;;;;32.25;26.00;;;;;7.16;64.10;102128.13;5033064;28;45297;-67
2023/01/30 01:16:18;;;;;;;;;19.25;19.00;;;;;7.18;64.11;102129.16;5033753;28;45251;-67
2023/01/30 01:18:44;;;;;;;;;30.00;27.00;;;;;7.11;64.08;102114.56;5025509;28;44981;-68
2023/01/30 01:21:09;;;;;;;;;29.25;26.00;;;;;7.22;63.50;102119.63;5027023;28;45083;-67
2023/01/30 01:23:34;;;;;;;;;29.50;26.75;;;;;7.20;64.03;102106.25;5020941;28;45357;-66
2023/01/30 01:26:02;;;;;;;;;27.75;24.00;;;;;7.20;64.01;102109.81;5012922;28;50743;-67
2023/01/30 01:28:28;;;;;;;;;25.25;24.75;;;;;7.16;63.21;102093.56;5017905;28;45780;-68
2023/01/30 01:30:53;;;;;;;;;34.50;25.00;;;;;7.17;63.42;102106.97;5025742;28;61574;-68
2023/01/30 01:33:18;;;;;;;;;30.50;27.75;;;;;7.22;63.67;102101.03;5027091;28;45209;-68
2023/01/30 01:35:46;;;;;;;;;24.25;22.25;;;;;7.22;63.30;102103.69;5021117;28;45296;-66
2023/01/30 01:38:11;;;;;;;;;25.25;21.50;;;;;7.18;63.26;102103.50;5025193;28;45258;-67
2023/01/30 01:43:22;;;;;;;;;26.50;22.00;;;;;7.25;62.55;102106.53;5032190;28;45121;-67
2023/01/30 01:45:55;;;;;;;;;29.50;24.50;;;;;7.27;63.02;102107.53;5031830;28;45039;-68
2023/01/30 01:48:30;;;;;;;;;35.75;23.00;;;;;7.26;63.12;102096.00;5033730;28;45108;-66
2023/01/30 01:51:04;;;;;;;;;29.75;26.75;;;;;7.16;62.91;102081.22;5028912;28;45175;-67
2023/01/30 01:53:33;;;;;;;;;25.00;22.00;;;;;7.23;62.64;102097.56;5030862;28;45084;-67
2023/01/30 01:56:01;;;;;;;;;28.25;21.50;;;;;7.28;62.88;102094.34;5033069;28;45144;-66
2023/01/30 01:58:34;;;;;;;;;21.25;16.50;;;;;7.30;62.98;102090.03;5035804;28;45355;-67
2023/01/30 02:01:01;;;;;;;;;42.75;29.75;;;;;7.26;63.10;102096.00;5033792;28;45796;-68
2023/01/30 02:03:29;;;;;;;;;27.00;24.00;;;;;7.24;62.77;102092.31;5032309;28;45172;-66
2023/01/30 02:06:00;;;;;;;;;23.00;22.50;;;;;7.11;62.22;102072.06;5031943;28;45139;-67
2023/01/30 02:08:36;;;;;;;;;24.50;22.25;;;;;7.19;62.79;102093.75;5033303;28;45046;-66
2023/01/30 02:11:23;;;;;;;;;21.00;17.50;;;;;7.18;62.52;102087.53;5026163;28;45618;-65
2023/01/30 02:13:49;;;;;;;;;39.00;25.25;;;;;7.18;62.46;102092.84;5029721;28;45303;-66
2023/01/30 02:16:15;;;;;;;;;31.75;21.00;;;;;7.19;62.58;102096.41;5045931;28;45289;-67
2023/01/30 02:18:42;;;;;;;;;25.25;22.50;;;;;7.18;62.14;102090.19;5031599;28;45049;-66
2023/01/30 02:21:26;;;;;;;;;31.00;24.00;;;;;7.22;62.69;102093.06;5030124;28;45273;-66
2023/01/30 02:24:06;;;;;;;;;33.75;24.75;;;;;7.21;62.71;102092.16;5027918;28;45242;-66
2023/01/30 02:26:53;;;;;;;;;26.50;22.75;;;;;7.20;62.36;102084.97;5012077;28;45884;-65
2023/01/30 02:29:40;;;;;;;;;26.25;22.50;;;;;7.23;61.70;102087.84;5034704;28;45334;-67
2023/01/30 02:32:28;;;;;;;;;28.25;23.25;;;;;7.24;62.16;102089.66;5033434;28;45161;-66
2023/01/30 02:35:08;;;;;;;;;26.50;20.75;;;;;7.25;62.05;102091.50;5033786;28;45089;-67
2023/01/30 02:37:44;;;;;;;;;27.75;22.75;;;;;7.14;62.18;102071.31;5030159;28;45001;-66
2023/01/30 02:40:32;;;;;;;;;31.50;26.00;;;;;7.25;61.89;102077.28;5031678;28;45064;-67
2023/01/30 02:43:06;;;;;;;;;24.50;24.50;;;;;7.25;62.04;102078.19;5027820;28;45291;-67
2023/01/30 02:45:44;;;;;;;;;33.50;27.00;;;;;7.27;62.35;102081.88;5032337;28;45181;-66
2023/01/30 02:48:15;;;;;;;;;29.00;19.25;;;;;7.27;61.42;102086.28;5031357;28;45266;-67
2023/01/30 02:50:55;;;;;;;;;22.75;21.25;;;;;7.25;62.10;102085.28;5029895;28;45154;-67
2023/01/30 02:53:21;;;;;;;;;24.50;22.50;;;;;7.20;61.97;102092.94;5033101;28;46520;-68
2023/01/30 02:55:46;;;;;;;;;30.50;23.50;;;;;7.24;62.41;102100.28;5023707;28;46237;-67
2023/01/30 02:58:12;;;;;;;;;24.25;20.25;;;;;7.20;62.55;102088.53;5032677;28;45322;-67
2023/01/30 03:01:02;;;;;;;;;30.75;22.50;;;;;7.26;62.50;102089.75;5031113;28;46205;-67
2023/01/30 03:04:05;;;;;;;;;29.75;21.25;;;;;7.26;62.45;102090.69;5018710;28;47654;-68
2023/01/30 03:06:30;;;;;;;;;28.00;21.00;;;;;7.24;62.17;102097.63;5039586;28;45270;-67
2023/01/30 03:09:10;;;;;;;;;31.75;23.75;;;;;7.25;62.62;102094.16;5032756;28;45200;-67
2023/01/30 03:11:41;;;;;;;;;32.75;24.00;;;;;7.25;62.23;102086.19;5031797;28;45478;-68
2023/01/30 03:14:17;;;;;;;;;24.75;23.50;;;;;7.28;62.26;102090.78;5020684;28;46228;-66
2023/01/30 03:16:45;;;;;;;;;28.25;20.75;;;;;7.31;62.50;102085.63;5021654;28;45558;-67
2023/01/30 03:19:12;;;;;;;;;26.25;21.50;;;;;7.29;62.69;102087.28;5031020;28;45021;-66
2023/01/30 03:21:44;;;;;;;;;31.75;24.00;;;;;7.29;62.49;102090.88;5032354;28;45014;-66
2023/01/30 03:24:10;;;;;;;;;34.50;25.75;;;;;7.27;62.91;102097.81;5015593;28;45640;-67
2023/01/30 03:26:42;;;;;;;;;27.50;21.25;;;;;7.23;63.60;102098.47;5024106;28;45458;-66
2023/01/30 03:29:07;;;;;;;;;27.50;23.50;;;;;7.23;64.91;102092.25;5023018;28;45127;-66
2023/01/30 03:31:32;;;;;;;;;31.25;25.00;;;;;7.18;65.31;102091.94;5032075;28;45661;-66
2023/01/30 03:33:58;;;;;;;;;27.75;26.00;;;;;7.15;65.00;102081.13;5022209;28;46024;-67
2023/01/30 03:36:23;;;;;;;;;27.50;23.25;;;;;7.13;65.75;102083.69;5035015;28;45021;-67
2023/01/30 03:38:50;;;;;;;;;35.25;23.75;;;;;7.13;65.89;102081.03;5037902;28;45070;-67
2023/01/30 03:41:16;;;;;;;;;32.00;30.00;;;;;7.13;66.04;102080.13;5036499;28;45084;-65
2023/01/30 03:43:41;;;;;;;;;26.75;25.25;;;;;7.09;65.66;102067.44;5026894;28;45335;-67
2023/01/30 03:46:07;;;;;;;;;30.00;25.75;;;;;7.20;65.19;102091.22;5032360;28;45157;-67
2023/01/30 03:48:32;;;;;;;;;28.75;25.25;;;;;7.20;65.51;102075.25;5031347;28;45294;-66
2023/01/30 03:50:58;;;;;;;;;32.25;25.25;;;;;7.16;65.12;102064.34;5032232;28;45104;-68
2023/01/30 03:53:23;;;;;;;;;30.75;25.50;;;;;7.21;65.51;102070.88;5034347;28;45629;-66
2023/01/30 03:55:48;;;;;;;;;23.25;23.00;;;;;7.16;66.05;102062.63;5032870;28;49124;-68
2023/01/30 03:58:13;;;;;;;;;30.75;22.00;;;;;7.20;65.75;102064.63;5031173;28;45491;-66
2023/01/30 04:00:39;;;;;;;;;24.25;21.00;;;;;7.16;65.71;102067.94;5032020;28;45309;-67
2023/01/30 04:03:04;;;;;;;;;25.50;19.25;;;;;7.13;65.92;102067.75;5026639;28;45275;-67
2023/01/30 04:05:29;;;;;;;;;32.25;23.75;;;;;7.10;66.02;102056.91;5030549;28;59944;-67
2023/01/30 04:07:56;;;;;;;;;22.00;21.50;;;;;7.13;66.43;102062.44;5028573;28;45501;-65
2023/01/30 04:10:22;;;;;;;;;29.75;21.25;;;;;7.13;66.69;102048.22;5029845;28;44994;-66
2023/01/30 04:12:48;;;;;;;;;26.25;18.75;;;;;7.12;65.82;102051.69;5026736;28;45344;-67
2023/01/30 04:15:13;;;;;;;;;25.00;23.75;;;;;7.10;66.23;102056.91;5030730;28;44975;-66
2023/01/30 04:17:39;;;;;;;;;29.00;20.00;;;;;7.11;65.93;102061.44;5032703;28;45549;-67
2023/01/30 04:20:05;;;;;;;;;28.75;22.75;;;;;7.09;66.30;102055.06;5030031;28;45655;-66
2023/01/30 04:22:30;;;;;;;;;23.00;22.50;;;;;7.11;66.18;102060.47;5031893;28;46156;-65
2023/01/30 04:24:55;;;;;;;;;30.50;23.00;;;;;7.12;66.19;102046.38;5020755;28;57112;-66
2023/01/30 04:27:21;;;;;;;;;30.00;22.00;;;;;7.13;66.15;102045.56;5025213;28;45498;-66
2023/01/30 04:29:46;;;;;;;;;29.50;23.00;;;;;7.11;65.94;102045.47;5025046;28;45309;-68
2023/01/30 04:32:11;;;;;;;;;27.00;20.75;;;;;7.10;66.58;102040.97;5028587;28;46405;-67
2023/01/30 04:34:37;;;;;;;;;26.00;22.25;;;;;7.13;67.03;102033.19;5023208;28;45501;-66
2023/01/30 04:37:02;;;;;;;;;23.00;22.75;;;;;7.12;67.14;102031.34;5022924;28;45643;-66
2023/01/30 04:39:28;;;;;;;;;24.00;19.00;;;;;7.10;67.15;102027.69;5029560;28;45276;-67
2023/01/30 04:41:53;;;;;;;;;23.50;21.75;;;;;7.12;67.25;102030.44;5029518;28;45278;-66
2023/01/30 04:44:18;;;;;;;;;29.50;22.00;;;;;7.12;67.00;102038.41;5033423;28;57333;-65
2023/01/30 04:46:44;;;;;;;;;20.75;19.75;;;;;7.16;67.15;102035.09;5034070;28;45319;-67
2023/01/30 04:49:10;;;;;;;;;27.00;21.00;;;;;7.13;66.84;102027.88;5032155;28;45243;-66
2023/01/30 04:51:35;;;;;;;;;21.25;18.25;;;;;7.06;66.62;102025.69;5033688;28;45948;-66
2023/01/30 04:54:01;;;;;;;;;29.50;23.75;;;;;7.07;66.56;102019.53;5028447;28;54403;-67
2023/01/30 04:56:26;;;;;;;;;24.00;19.75;;;;;7.17;66.32;102044.91;5030981;28;45197;-66
2023/01/30 04:58:51;;;;;;;;;34.25;23.75;;;;;7.16;66.29;102038.69;5033063;28;45239;-66
2023/01/30 05:01:23;;;;;;;;;29.50;24.50;;;;;7.20;66.56;102040.69;5038275;28;47085;-67
2023/01/30 05:03:53;;;;;;;;;16.50;14.75;;;;;7.22;66.70;102032.81;5028731;28;45038;-66
2023/01/30 05:06:20;;;;;;;;;21.25;19.25;;;;;7.24;66.55;102038.22;5039206;28;45128;-67
2023/01/30 05:08:49;;;;;;;;;27.25;21.75;;;;;7.20;66.51;102029.16;5031923;28;45014;-67
2023/01/30 05:11:15;;;;;;;;;26.75;22.75;;;;;7.29;66.53;102044.75;5030926;28;45326;-67
2023/01/30 05:13:42;;;;;;;;;28.50;20.25;;;;;7.19;66.24;102017.63;5033252;28;45192;-67
2023/01/30 05:16:09;;;;;;;;;34.25;26.25;;;;;7.20;66.11;102013.22;5029935;28;45120;-67
2023/01/30 05:18:34;;;;;;;;;26.25;21.50;;;;;7.30;66.57;102043.94;5037328;28;45138;-67
2023/01/30 05:21:09;;;;;;;;;26.50;24.00;;;;;7.30;66.90;102039.53;5033137;28;45421;-67
2023/01/30 05:23:35;;;;;;;;;28.00;23.00;;;;;7.27;66.96;102028.69;5037630;28;45350;-67
2023/01/30 05:26:01;;;;;;;;;28.50;24.00;;;;;7.21;67.19;102009.75;5037936;28;45253;-66
2023/01/30 05:28:28;;;;;;;;;26.00;19.50;;;;;7.37;67.33;102035.50;5034991;28;45200;-67
2023/01/30 05:30:54;;;;;;;;;30.00;21.25;;;;;7.34;66.92;102024.66;5031674;28;46120;-67
2023/01/30 05:33:19;;;;;;;;;31.50;24.75;;;;;7.33;67.29;102028.16;5027255;28;45471;-67
2023/01/30 05:35:48;;;;;;;;;24.00;19.50;;;;;7.31;67.31;102029.78;5030488;28;45189;-66
2023/01/30 05:38:14;;;;;;;;;24.50;22.00;;;;;7.35;67.21;102032.75;5028254;28;45405;-67
2023/01/30 05:40:39;;;;;;;;;22.00;20.75;;;;;7.41;67.61;102033.94;5025992;28;45527;-65
2023/01/30 05:43:05;;;;;;;;;23.75;17.00;;;;;7.42;67.60;102027.78;5024616;28;45385;-67
2023/01/30 05:45:30;;;;;;;;;21.00;18.75;;;;;7.44;67.62;102026.13;5015362;28;45512;-66
2023/01/30 05:47:55;;;;;;;;;22.75;21.50;;;;;7.45;67.93;102018.25;5020067;28;45450;-66
2023/01/30 05:50:21;;;;;;;;;26.75;19.50;;;;;7.42;67.51;102006.53;5002376;28;47146;-66
2023/01/30 05:52:46;;;;;;;;;26.50;22.25;;;;;7.45;67.49;102017.34;5015012;28;45724;-67
2023/01/30 05:55:12;;;;;;;;;26.00;18.75;;;;;7.44;67.30;102024.41;5018449;28;45465;-66
2023/01/30 05:57:37;;;;;;;;;20.00;20.00;;;;;7.40;67.81;102009.09;5012918;28;45438;-67
2023/01/30 06:00:04;;;;;;;;;22.00;19.25;;;;;7.51;67.45;101999.09;5012461;28;45624;-67
2023/01/30 06:02:30;;;;;;;;;26.00;22.75;;;;;7.53;68.29;102002.75;5016973;28;45758;-66
2023/01/30 06:04:55;;;;;;;;;24.75;22.00;;;;;7.50;67.87;101999.91;5014612;28;45407;-67
2023/01/30 06:07:21;;;;;;;;;31.50;26.25;;;;;7.43;68.26;101993.31;5019737;28;45317;-67
2023/01/30 06:09:46;;;;;;;;;25.75;22.75;;;;;7.51;68.72;102002.66;5017334;28;45470;-67
2023/01/30 06:12:11;;;;;;;;;33.50;25.50;;;;;7.52;68.37;101992.94;5014062;28;45346;-68
2023/01/30 06:14:37;;;;;;;;;26.00;22.50;;;;;7.44;68.83;101986.25;5025846;28;45106;-66
2023/01/30 06:17:03;;;;;;;;;32.50;25.75;;;;;7.45;68.80;101990.75;5022084;28;45377;-67
2023/01/30 06:19:29;;;;;;;;;24.75;24.75;;;;;7.44;69.44;101991.56;5028307;28;45466;-65
2023/01/30 06:21:54;;;;;;;;;32.75;27.50;;;;;7.42;69.00;101990.56;5022988;28;45586;-66
2023/01/30 06:24:20;;;;;;;;;23.00;21.00;;;;;7.50;69.12;101990.19;5022724;28;45490;-65
2023/01/30 06:26:45;;;;;;;;;22.50;20.75;;;;;7.52;69.07;101993.88;4995293;28;45744;-67
2023/01/30 06:29:10;;;;;;;;;33.25;22.00;;;;;7.53;69.34;101989.47;5006286;28;46604;-66
2023/01/30 06:31:36;;;;;;;;;30.75;25.75;;;;;7.61;69.11;102006.78;5035686;28;45176;-68
2023/01/30 06:34:01;;;;;;;;;23.25;21.00;;;;;7.60;68.89;102004.94;5039851;28;45657;-67
2023/01/30 06:36:26;;;;;;;;;23.50;18.25;;;;;7.66;68.91;102009.72;5031633;28;45211;-67
2023/01/30 06:38:52;;;;;;;;;19.75;18.75;;;;;7.71;68.68;102030.44;5030567;28;45296;-67
2023/01/30 06:41:18;;;;;;;;;20.75;18.25;;;;;7.59;68.94;101996.88;5036693;28;45324;-66
2023/01/30 06:43:44;;;;;;;;;33.25;23.25;;;;;7.75;68.61;102018.22;5033226;28;44977;-66
2023/01/30 06:46:09;;;;;;;;;28.75;24.00;;;;;7.83;68.83;102032.88;5030742;28;45190;-67
2023/01/30 06:48:34;;;;;;;;;18.25;17.50;;;;;7.80;67.91;102027.38;5034542;28;45985;-66
2023/01/30 06:51:00;;;;;;;;;20.00;17.25;;;;;7.76;68.62;102030.72;5028734;28;45090;-67
2023/01/30 06:53:29;;;;;;;;;24.00;18.50;;;;;7.82;68.84;102039.06;5031420;28;45626;-66
2023/01/30 06:55:58;;;;;;;;;24.25;21.50;;;;;7.86;69.15;102043.72;5024995;28;45451;-67
2023/01/30 06:58:24;;;;;;;;;25.00;19.50;;;;;7.86;69.10;102037.47;5034667;28;46321;-67
2023/01/30 07:00:49;;;;;;;;;31.00;19.25;;;;;7.87;69.11;102033.97;5023586;28;45206;-67
2023/01/30 07:03:16;;;;;;;;;26.25;22.25;;;;;7.70;69.12;102019.69;5021270;28;45407;-66
2023/01/30 07:05:43;;;;;;;;;23.00;18.75;;;;;7.82;69.49;102035.44;5020854;28;45378;-66
2023/01/30 07:08:09;;;;;;;;;30.00;24.75;;;;;7.86;69.50;102050.78;5015378;28;46379;-67
2023/01/30 07:10:35;;;;;;;;;26.00;21.25;;;;;7.87;69.07;102049.94;5014286;28;45491;-67
2023/01/30 07:13:01;;;;;;;;;26.25;22.25;;;;;7.91;69.25;102060.84;5013959;28;45562;-67
2023/01/30 07:15:27;;;;;;;;;27.75;22.50;;;;;7.89;69.53;102048.31;4998302;28;45526;-66
2023/01/30 07:17:52;;;;;;;;;24.75;18.75;;;;;7.96;70.01;102055.81;4998149;28;46307;-67
2023/01/30 07:20:17;;;;;;;;;29.00;20.50;;;;;8.02;68.86;102068.53;5016210;28;45429;-67
2023/01/30 07:22:51;;;;;;;;;25.50;22.50;;;;;8.03;69.68;102065.97;5018840;28;45310;-67
2023/01/30 07:25:19;;;;;;;;;28.00;21.50;;;;;8.04;69.52;102066.91;5022258;28;45613;-68
2023/01/30 07:27:52;;;;;;;;;32.25;22.25;;;;;8.05;69.20;102067.00;4995646;28;47283;-67
2023/01/30 07:30:17;;;;;;;;;21.25;20.00;;;;;8.01;69.12;102069.38;5017843;28;45460;-67
2023/01/30 07:32:43;;;;;;;;;20.25;18.00;;;;;7.69;70.33;102020.53;5015815;28;45557;-67
2023/01/30 07:35:08;;;;;;;;;34.25;27.75;;;;;8.05;69.58;102082.03;5018193;28;45604;-68
2023/01/30 07:37:34;;;;;;;;;24.25;19.25;;;;;8.05;69.34;102079.38;5016051;28;45999;-67
2023/01/30 07:39:59;;;;;;;;;27.25;22.75;;;;;8.03;69.10;102073.03;5014344;28;45725;-69
2023/01/30 07:42:24;;;;;;;;;25.50;23.50;;;;;8.10;68.97;102078.81;5013486;28;50863;-67
2023/01/30 07:44:50;;;;;;;;;20.25;19.25;;;;;8.13;70.00;102075.41;5025483;28;45548;-69
2023/01/30 07:47:15;;;;;;;;;24.50;19.50;;;;;8.14;68.94;102081.66;5024103;28;67765;-69
2023/01/30 07:49:40;;;;;;;;;26.50;23.25;;;;;8.10;70.20;102085.88;5015725;28;44836;-68
2023/01/30 07:52:06;;;;;;;;;31.75;23.25;;;;;8.10;70.48;102080.53;5012926;28;45427;-67
2023/01/30 07:54:31;;;;;;;;;39.25;31.25;;;;;8.13;70.76;102075.41;5020157;28;45491;-68
2023/01/30 07:56:56;;;;;;;;;23.75;19.00;;;;;8.09;70.26;102074.31;5016614;28;45670;-70
2023/01/30 07:59:22;;;;;;;;;28.25;18.75;;;;;8.15;71.04;102073.78;5018855;28;45416;-67
2023/01/30 08:01:47;;;;;;;;;32.25;22.75;;;;;8.12;71.52;102077.16;5020766;28;47713;-68
2023/01/30 08:04:12;;;;;;;;;25.75;23.25;;;;;8.06;71.13;102065.25;5026002;28;45387;-67
2023/01/30 08:06:38;;;;;;;;;25.00;21.00;;;;;8.12;71.62;102073.59;5011974;28;47123;-67
2023/01/30 08:09:04;;;;;;;;;22.50;20.00;;;;;8.14;71.34;102079.91;5008880;28;45708;-68
2023/01/30 08:11:30;;;;;;;;;26.00;19.75;;;;;8.17;71.25;102073.88;5013638;28;45312;-70
2023/01/30 08:13:55;;;;;;;;;26.50;23.00;;;;;8.14;71.66;102074.59;5010975;28;45536;-67
2023/01/30 08:16:20;;;;;;;;;19.25;13.25;;;;;8.15;70.96;102078.16;5012807;28;60727;-66
2023/01/30 08:18:46;;;;;;;;;12.25;11.75;;;;;8.18;70.95;102081.91;5014099;28;45451;-66
2023/01/30 08:21:11;;;;;;;;;30.75;26.00;;;;;8.17;71.37;102074.78;5014511;28;45453;-67
2023/01/30 08:23:37;;;;;;;;;35.25;28.50;;;;;8.21;71.60;102081.19;5014287;28;45454;-67
2023/01/30 08:26:05;;;;;;;;;24.50;19.75;;;;;8.20;71.20;102076.66;5012583;28;45636;-68
2023/01/30 08:28:30;;;;;;;;;19.25;16.00;;;;;8.24;70.90;102084.03;5014358;28;45651;-68
2023/01/30 08:30:56;;;;;;;;;18.75;18.25;;;;;8.22;70.92;102091.00;5014707;28;45436;-67
2023/01/30 08:33:23;;;;;;;;;18.50;17.00;;;;;8.26;71.27;102090.34;5014430;28;45261;-67
2023/01/30 08:35:48;;;;;;;;;22.25;18.00;;;;;8.24;70.70;102084.03;5012824;28;46382;-67
2023/01/30 08:38:14;;;;;;;;;24.00;19.50;;;;;8.21;70.62;102089.16;5011567;28;45547;-66
2023/01/30 08:40:39;;;;;;;;;20.50;16.75;;;;;8.19;70.58;102089.06;5017760;28;45528;-66
2023/01/30 08:43:05;;;;;;;;;25.75;18.50;;;;;8.30;71.30;102105.69;5009775;28;45376;-69
2023/01/30 08:45:31;;;;;;;;;20.50;18.75;;;;;8.33;70.83;102099.59;5000220;28;47890;-66
2023/01/30 08:48:00;;;;;;;;;17.25;16.00;;;;;8.32;70.10;102095.13;5009550;28;45350;-67
2023/01/30 08:50:26;;;;;;;;;21.00;16.25;;;;;8.32;70.15;102087.13;5013410;28;45386;-67
2023/01/30 08:52:51;;;;;;;;;14.25;14.00;;;;;8.31;70.18;102088.84;5015831;28;45567;-67
2023/01/30 08:55:17;;;;;;;;;18.75;17.00;;;;;8.29;70.81;102085.19;5013377;28;46327;-67
2023/01/30 08:57:42;;;;;;;;;17.00;15.50;;;;;8.34;70.68;102098.78;5013723;28;45689;-67
2023/01/30 09:00:09;;;;;;;;;23.75;18.50;;;;;8.32;70.83;102097.78;5014055;28;45422;-68
2023/01/30 09:02:34;;;;;;;;;25.00;17.50;;;;;8.36;69.94;102108.66;5013068;28;45639;-68
2023/01/30 09:04:59;;;;;;;;;19.00;15.50;;;;;8.41;70.18;102111.59;5013575;28;45836;-68
2023/01/30 09:07:27;;;;;;;;;16.75;14.50;;;;;8.45;70.29;102119.00;5013447;28;45298;-67
2023/01/30 09:09:53;;;;;;;;;18.25;16.00;;;;;8.46;69.51;102118.16;5009249;28;45500;-68
2023/01/30 09:12:18;;;;;;;;;20.75;18.50;;;;;8.51;69.78;102118.41;5013620;28;45475;-68
2023/01/30 09:14:44;;;;;;;;;26.00;21.50;;;;;8.55;69.36;102117.78;5012893;28;45432;-68
2023/01/30 09:17:09;;;;;;;;;19.00;16.25;;;;;8.56;69.96;102112.50;5016281;28;45490;-67
2023/01/30 09:19:36;;;;;;;;;19.00;16.00;;;;;8.57;69.75;102118.78;5001240;28;45581;-68
2023/01/30 09:22:01;;;;;;;;;18.00;13.25;;;;;8.57;70.08;102122.34;5012057;28;45364;-68
2023/01/30 09:24:27;;;;;;;;;14.50;14.00;;;;;8.59;70.02;102117.09;5012890;28;45612;-69
2023/01/30 09:26:55;;;;;;;;;25.50;18.00;;;;;8.60;69.49;102119.84;5013133;28;45473;-68
2023/01/30 09:29:21;;;;;;;;;22.75;16.50;;;;;8.63;70.06;102122.69;5010052;28;45702;-68
2023/01/30 09:31:47;;;;;;;;;19.75;12.00;;;;;8.61;70.32;102123.41;5008688;28;45337;-70
2023/01/30 09:34:12;;;;;;;;;24.00;17.25;;;;;8.62;70.47;102123.50;5013255;28;45858;-68
2023/01/30 09:36:38;;;;;;;;;13.75;13.75;;;;;8.67;69.99;102127.34;5014451;28;45359;-68
2023/01/30 09:39:04;;;;;;;;;14.75;12.50;;;;;8.65;69.96;102126.34;5013435;28;45529;-67
2023/01/30 09:42:18;;;;;;;;;6.00;6.00;;;;;8.64;70.49;102120.94;5013659;28;45314;-68
2023/01/30 09:45:02;;;;;;;;;16.75;9.50;;;;;8.60;70.47;102116.28;4956414;28;46385;-68
2023/01/30 09:47:45;;;;;;;;;11.75;11.00;;;;;8.59;69.69;102115.34;5003103;28;46179;-67
2023/01/30 09:50:45;;;;;;;;;15.00;13.00;;;;;8.60;70.37;102108.28;5008417;28;45550;-67
2023/01/30 09:53:24;;;;;;;;;18.50;14.00;;;;;8.70;70.93;102115.06;5006860;28;45529;-67
2023/01/30 09:55:50;;;;;;;;;20.50;17.50;;;;;8.77;70.30;102109.22;5023305;28;47103;-68
2023/01/30 09:58:19;;;;;;;;;13.75;13.25;;;;;8.79;71.19;102107.56;4995320;28;45440;-67
2023/01/30 10:00:48;;;;;;;;;18.00;14.75;;;;;8.84;70.70;102119.38;4991463;28;45374;-68
2023/01/30 10:03:20;;;;;;;;;19.75;13.75;;;;;8.93;70.61;102122.56;5016150;28;45514;-67
2023/01/30 10:05:57;;;;;;;;;15.50;13.75;;;;;8.97;70.63;102119.22;5016029;28;47292;-66
2023/01/30 10:08:37;;;;;;;;;18.50;15.75;;;;;9.01;71.43;102134.56;5015906;28;45378;-67
2023/01/30 10:11:28;;;;;;;;;19.75;18.25;;;;;8.70;70.60;102083.97;5016340;28;45349;-67
2023/01/30 10:13:59;;;;;;;;;13.00;12.00;;;;;8.98;71.12;102130.81;5013020;28;45536;-67
2023/01/30 10:16:43;;;;;;;;;12.50;11.00;;;;;8.96;71.46;102133.41;5015393;28;46158;-67
2023/01/30 10:19:40;;;;;;;;;18.50;15.75;;;;;8.97;72.00;102145.88;5015618;28;45351;-67
2023/01/30 10:22:26;;;;;;;;;15.25;14.00;;;;;8.96;72.20;102148.44;5012724;28;45442;-66
2023/01/30 10:25:36;;;;;;;;;19.25;12.00;;;;;8.99;71.53;102153.97;5010571;28;45868;-68
2023/01/30 10:28:13;;;;;;;;;12.50;11.25;;;;;9.01;71.83;102139.91;4998100;28;46567;-67
2023/01/30 10:30:39;;;;;;;;;12.25;12.25;;;;;9.13;71.70;102144.06;5018429;28;46809;-67
2023/01/30 10:33:14;;;;;;;;;18.75;16.75;;;;;9.10;71.19;102135.91;5014364;28;46393;-68
2023/01/30 10:35:41;;;;;;;;;12.75;12.25;;;;;9.23;72.12;102151.72;5010580;28;45562;-68
2023/01/30 10:38:24;;;;;;;;;9.75;9.75;;;;;9.19;71.23;102152.41;5016203;28;46413;-68
2023/01/30 10:41:01;;;;;;;;;13.50;11.00;;;;;9.18;70.62;102132.81;5016299;28;45632;-68
2023/01/30 10:43:34;;;;;;;;;13.00;11.50;;;;;9.22;70.77;102125.88;5014797;28;45485;-68
2023/01/30 10:46:03;;;;;;;;;28.00;20.50;;;;;9.28;71.02;102117.31;5013586;28;45394;-68
2023/01/30 10:48:45;;;;;;;;;15.75;11.50;;;;;9.33;70.39;102115.81;5015448;28;46616;-68
2023/01/30 10:51:46;;;;;;;;;13.00;11.50;;;;;9.41;70.21;102110.03;5015347;28;45747;-67
2023/01/30 10:54:14;;;;;;;;;13.50;13.00;;;;;9.49;69.96;102110.47;5011552;28;45666;-68
2023/01/30 10:56:50;;;;;;;;;10.00;7.75;;;;;9.53;69.81;102108.84;5014043;28;45490;-70
2023/01/30 10:59:42;;;;;;;;;7.00;7.00;;;;;9.55;70.05;102100.13;5015728;28;46474;-67
2023/01/30 11:02:26;;;;;;;;;18.00;11.50;;;;;9.67;70.15;102105.16;4997602;28;45613;-66
2023/01/30 11:05:02;;;;;;;;;8.75;7.00;;;;;9.77;68.94;102112.81;5014242;28;45549;-68
2023/01/30 11:07:30;;;;;;;;;12.75;10.50;;;;;9.78;68.87;102103.03;5013664;28;45562;-68
2023/01/30 11:09:58;;;;;;;;;18.50;16.75;;;;;9.80;68.38;102112.06;5015030;28;45693;-67
2023/01/30 11:12:23;;;;;;;;;12.00;9.75;;;;;9.79;68.34;102115.56;5013429;28;45487;-68
2023/01/30 11:14:53;;;;;;;;;6.50;6.00;;;;;9.70;68.33;102116.00;5013485;28;45399;-68
2023/01/30 11:17:27;;;;;;;;;11.00;7.25;;;;;9.65;68.84;102119.25;5009370;28;45482;-68
2023/01/30 11:19:55;;;;;;;;;12.50;9.75;;;;;9.61;68.63;102110.19;5014847;28;46131;-67
2023/01/30 11:22:24;;;;;;;;;8.50;6.00;;;;;9.66;68.24;102107.75;5014776;28;45217;-66
2023/01/30 11:25:00;;;;;;;;;7.75;5.50;;;;;9.61;68.93;102101.28;4997048;28;45480;-68
2023/01/30 11:27:32;;;;;;;;;6.25;6.25;;;;;9.63;68.77;102112.94;5016012;28;45598;-71
2023/01/30 11:30:18;;;;;;;;;10.25;7.75;;;;;9.65;68.98;102098.84;5009018;28;46100;-68
2023/01/30 11:32:47;;;;;;;;;10.75;8.25;;;;;9.72;68.52;102111.66;5010581;28;45300;-68